Wichita, KS (67220)

9:46 AM CDT on July 29, 2016 (GMT -0500)
Bel Aire | | Change Station

Elev 1424 ft 37.76 °N, 97.28 °W | Updated 10 minutes ago

Light Rain
Light Rain
71.8 °F
Feels Like 71.8 °F
N
2.7
Wind Variable Wind from West

Today
High -- | Low -- °F
--% Chance of Precip.
Yesterday
High -- | Low -- °F
Precip. -- in
Pressure 30.04 in
Visibility 9.0 miles
Clouds Few 500 ft
Scattered Clouds 3000 ft
Mostly Cloudy 9000 ft
Dew Point 71 °F
Humidity 98%
Rainfall 0.05 in
Snow Depth Not available.
6:30 AM 8:40 PM
Waning Crescent, 21% visible
METAR KAAO 291354Z AUTO 31005KT 9SM -RA FEW005 SCT030 BKN090 21/21 A3007 RMK AO2 SLP173 P0003 T02110206
Pressure 30.04 in
Visibility 9.0 miles
Clouds Few 500 ft
Scattered Clouds 3000 ft
Mostly Cloudy 9000 ft
Dew Point 71 °F
Humidity 98%
Rainfall 0.05 in
Snow Depth Not available.
6:30 AM 8:40 PM
Waning Crescent, 21% visible
METAR KAAO 291354Z AUTO 31005KT 9SM -RA FEW005 SCT030 BKN090 21/21 A3007 RMK AO2 SLP173 P0003 T02110206

10-Day Weather Forecast

Almanac

Astronomy

Jul. 29, 2016 Rise Set
Actual Time
Civil Twilight
Nautical Twilight
Astronomical Twilight
Moon
Length of Visible Light
Length of Day
Tomorrow will be .
, % of the Moon is Illuminated

Today's Extremes

State Highs State Lows

Community

WunderPhotos

Upload Photos

1,928,343 photos uploaded!

WunderBlog® & News

Nearby

Air Quality

  Air Quality AQ Index Pollutant
Not available.

Snow Depth

Station Depth Elevation

Earthquake Activity

City Distance Mag. Time & Date
Minimum magnitude displayed is 2.5.

Coastal Water Temperatures

Place Temperature

Stations

Nearby Weather Stations

Station Location Temp. Windchill Dew Point Humidity Wind Precip. Elev Updated Type
                   

Watches & Warnings

There are currently no watches in effect.